Time;durP1;ratioP1;P1;durP2;ratioP2;P2;SDS_P1;SDS_P2;PMS_P1;PMS_P2;Temp;Humidity;BMP_temperature;BMP_pressure;BME280_temperature;BME280_humidity;BME280_pressure;Samples;Min_cycle;Max_cycle;Signal;HPM_P1;HPM_P2
2020/12/03 00:00:44;;;;;;;55.87;28.60;;;;;;;-6.53;81.79;96721.80;1757498;80;21137;-78
2020/12/03 00:03:46;;;;;;;59.77;28.83;;;;;;;-6.54;81.72;96718.42;1765595;81;21115;-78
2020/12/03 00:06:26;;;;;;;53.13;27.23;;;;;;;-6.57;81.72;96717.96;1741578;81;21594;-78
2020/12/03 00:09:01;;;;;;;44.77;19.47;;;;;;;-6.59;81.59;96710.40;1765703;81;21126;-79
2020/12/03 00:11:33;;;;;;;46.70;20.87;;;;;;;-6.60;81.66;96703.15;1766119;80;21529;-79
2020/12/03 00:14:00;;;;;;;46.13;20.37;;;;;;;-6.55;81.67;96701.84;1765709;81;21123;-79
2020/12/03 00:16:32;;;;;;;43.13;18.67;;;;;;;-6.50;81.68;96702.13;1765600;81;21116;-79
2020/12/03 00:19:01;;;;;;;36.47;20.97;;;;;;;-6.47;81.67;96700.03;1765520;81;21467;-79
2020/12/03 00:21:43;;;;;;;43.45;21.68;;;;;;;-6.35;81.78;96697.84;1765785;80;21185;-79
2020/12/03 00:24:15;;;;;;;44.85;22.40;;;;;;;-6.23;81.73;96687.45;1765583;81;21139;-79
2020/12/03 00:26:43;;;;;;;44.80;21.17;;;;;;;-6.18;81.57;96689.05;1765811;81;21139;-79
2020/12/03 00:29:10;;;;;;;47.33;20.27;;;;;;;-6.31;81.14;96684.95;1765495;81;21171;-79
2020/12/03 00:31:37;;;;;;;41.35;19.80;;;;;;;-6.44;80.96;96684.70;1765606;80;21140;-79
2020/12/03 00:34:08;;;;;;;39.10;21.53;;;;;;;-6.51;81.49;96687.14;1738262;81;21170;-79
2020/12/03 00:36:37;;;;;;;37.33;19.57;;;;;;;-6.49;81.70;96685.67;1733793;83;21143;-79
2020/12/03 00:39:08;;;;;;;34.20;16.77;;;;;;;-6.54;81.73;96686.67;1733700;83;21111;-79
2020/12/03 00:41:36;;;;;;;35.53;16.97;;;;;;;-6.60;81.37;96689.45;1733667;81;21158;-79
2020/12/03 00:44:04;;;;;;;33.20;16.10;;;;;;;-6.75;80.98;96675.67;1733766;83;21530;-79
2020/12/03 00:46:33;;;;;;;39.85;19.50;;;;;;;-6.81;80.82;96675.84;1733835;83;21162;-79
2020/12/03 00:49:03;;;;;;;35.90;18.50;;;;;;;-6.81;81.13;96675.04;1733910;83;21155;-79
2020/12/03 00:51:30;;;;;;;34.47;18.20;;;;;;;-6.83;81.14;96679.08;1733799;81;21494;-79
2020/12/03 00:53:57;;;;;;;56.83;26.73;;;;;;;-6.95;81.06;96669.62;1733705;83;21111;-79
2020/12/03 00:56:24;;;;;;;58.93;26.47;;;;;;;-7.07;81.14;96674.01;1733699;83;21147;-79
2020/12/03 00:58:51;;;;;;;51.87;26.10;;;;;;;-7.09;81.17;96669.51;1733766;83;21146;-79
2020/12/03 01:01:36;;;;;;;49.37;24.87;;;;;;;-7.05;81.23;96659.19;1733700;81;21119;-79
2020/12/03 01:04:03;;;;;;;46.67;22.30;;;;;;;-6.99;81.18;96664.97;1733676;83;21134;-79
2020/12/03 01:06:31;;;;;;;44.43;21.67;;;;;;;-6.92;81.29;96664.13;1733915;83;21158;-79
2020/12/03 01:08:58;;;;;;;42.13;20.60;;;;;;;-6.84;81.27;96656.05;1733761;83;21159;-79
2020/12/03 01:11:26;;;;;;;26.13;14.73;;;;;;;-6.77;81.27;96649.23;1733669;81;21515;-79
2020/12/03 01:13:53;;;;;;;30.43;14.27;;;;;;;-6.74;81.17;96648.44;1733683;83;21131;-79
2020/12/03 01:16:21;;;;;;;36.83;21.70;;;;;;;-6.73;81.08;96639.73;1733722;83;21507;-79
2020/12/03 01:18:49;;;;;;;43.23;20.67;;;;;;;-6.63;81.15;96640.79;1733773;83;21494;-79
2020/12/03 01:21:23;;;;;;;46.58;23.40;;;;;;;-6.60;81.04;96639.98;1733660;81;21150;-79
2020/12/03 01:23:51;;;;;;;51.02;22.25;;;;;;;-6.69;80.61;96636.33;1733688;83;21471;-79
2020/12/03 01:26:20;;;;;;;45.03;21.67;;;;;;;-6.78;80.33;96629.59;1733733;83;21154;-79
2020/12/03 01:28:48;;;;;;;46.80;19.73;;;;;;;-6.83;80.07;96614.65;1733687;83;21131;-79
2020/12/03 01:31:16;;;;;;;48.67;20.63;;;;;;;-6.88;79.87;96611.78;1733725;81;21489;-79
2020/12/03 01:33:44;;;;;;;44.83;21.33;;;;;;;-6.91;80.04;96606.45;1733628;81;21475;-79
2020/12/03 01:36:14;;;;;;;45.77;21.70;;;;;;;-6.88;79.99;96609.20;1733727;83;21163;-79
2020/12/03 01:38:44;;;;;;;47.03;23.97;;;;;;;-6.90;79.99;96608.55;1733901;83;21136;-79
2020/12/03 01:41:11;;;;;;;42.67;23.80;;;;;;;-7.00;79.90;96613.12;1733792;81;21188;-79
2020/12/03 01:43:43;;;;;;;42.83;21.93;;;;;;;-7.13;79.99;96609.80;1733700;83;21127;-79
2020/12/03 01:46:11;;;;;;;50.63;24.93;;;;;;;-7.13;80.21;96607.22;1733802;83;21483;-79
2020/12/03 01:48:57;;;;;;;39.25;21.25;;;;;;;-7.10;80.36;96596.58;1733697;83;21491;-79
2020/12/03 01:51:42;;;;;;;34.07;17.80;;;;;;;-7.08;80.43;96600.27;1733746;81;21526;-79
2020/12/03 01:54:16;;;;;;;39.87;20.70;;;;;;;-7.01;80.70;96595.58;1733768;83;21139;-79
2020/12/03 01:57:11;;;;;;;27.17;15.13;;;;;;;-6.90;80.71;96589.22;1733712;83;21150;-79
2020/12/03 01:59:43;;;;;;;31.97;17.27;;;;;;;-6.86;80.75;96594.37;1733709;81;21211;-79
2020/12/03 02:02:15;;;;;;;40.30;20.60;;;;;;;-6.70;81.01;96594.28;1733767;83;21126;-79
2020/12/03 02:04:42;;;;;;;41.43;20.87;;;;;;;-6.55;81.00;96598.70;1733679;83;21111;-79
2020/12/03 02:07:14;;;;;;;41.87;19.13;;;;;;;-6.45;80.91;96590.26;1733867;83;21138;-79
2020/12/03 02:09:41;;;;;;;35.83;16.97;;;;;;;-6.39;80.75;96579.24;1733677;81;21493;-79
2020/12/03 02:12:08;;;;;;;23.97;13.03;;;;;;;-6.30;80.52;96580.80;1733652;83;21135;-79
2020/12/03 02:14:35;;;;;;;33.93;18.43;;;;;;;-6.24;80.19;96579.28;1733620;83;21150;-79
2020/12/03 02:17:02;;;;;;;34.67;16.73;;;;;;;-6.41;79.94;96571.67;1733737;83;21138;-79
2020/12/03 02:19:33;;;;;;;29.30;17.90;;;;;;;-6.37;79.99;96569.55;1733579;81;21146;-79
2020/12/03 02:22:07;;;;;;;36.70;18.03;;;;;;;-6.33;80.15;96555.35;1733996;83;21134;-79
2020/12/03 02:24:39;;;;;;;35.57;17.80;;;;;;;-6.27;80.10;96556.42;1733665;83;21143;-79
2020/12/03 02:27:08;;;;;;;37.50;16.43;;;;;;;-6.44;79.52;96549.31;1733990;83;21118;-79
2020/12/03 02:29:35;;;;;;;35.68;16.32;;;;;;;-6.56;79.42;96536.50;1733715;81;21140;-79
2020/12/03 02:32:04;;;;;;;40.27;18.07;;;;;;;-6.58;79.54;96532.81;1733616;83;21530;-79
2020/12/03 02:34:31;;;;;;;31.02;14.43;;;;;;;-6.58;79.70;96534.11;1755071;81;21547;-79
2020/12/03 02:37:02;;;;;;;34.03;17.20;;;;;;;-6.59;79.67;96534.59;1760066;81;21487;-79
2020/12/03 02:39:32;;;;;;;33.00;16.73;;;;;;;-6.69;79.55;96534.02;1760179;80;21135;-79
2020/12/03 02:42:01;;;;;;;32.45;14.07;;;;;;;-6.69;79.73;96528.86;1760067;81;21131;-79
2020/12/03 02:44:29;;;;;;;34.73;16.00;;;;;;;-6.65;79.88;96527.53;1759819;81;21152;-79
2020/12/03 02:46:57;;;;;;;27.80;14.17;;;;;;;-6.64;79.79;96525.27;1759866;81;21141;-79
2020/12/03 02:49:26;;;;;;;29.47;14.77;;;;;;;-6.64;79.74;96526.55;1759740;80;21476;-79
2020/12/03 02:52:14;;;;;;;32.33;14.18;;;;;;;-6.65;79.79;96522.38;1758140;81;21143;-79
2020/12/03 02:54:43;;;;;;;27.20;13.08;;;;;;;-6.67;79.80;96517.08;1760246;81;21143;-79
2020/12/03 02:57:10;;;;;;;27.85;11.93;;;;;;;-6.64;79.84;96532.20;1760016;81;21143;-79
2020/12/03 02:59:39;;;;;;;24.97;12.50;;;;;;;-6.59;79.84;96543.62;1771144;80;21195;-79
2020/12/03 03:02:07;;;;;;;21.33;11.50;;;;;;;-6.63;79.70;96533.31;1791068;80;21143;-79
2020/12/03 03:04:34;;;;;;;26.70;13.13;;;;;;;-6.65;79.76;96533.17;1790950;80;21135;-79
2020/12/03 03:07:02;;;;;;;23.97;11.90;;;;;;;-6.63;79.78;96531.22;1790990;80;21143;-79
2020/12/03 03:09:30;;;;;;;25.63;12.90;;;;;;;-6.58;79.87;96536.69;1790875;80;21289;-79
2020/12/03 03:11:57;;;;;;;33.50;18.50;;;;;;;-6.53;79.86;96522.77;1783202;80;21272;-79
2020/12/03 03:14:24;;;;;;;41.25;19.20;;;;;;;-6.43;80.00;96522.55;1759847;81;21147;-79
2020/12/03 03:16:51;;;;;;;34.18;17.48;;;;;;;-6.39;79.98;96527.17;1759930;81;21159;-79
2020/12/03 03:19:19;;;;;;;28.92;16.12;;;;;;;-6.43;79.77;96528.50;1759862;80;21511;-79
2020/12/03 03:21:47;;;;;;;30.20;15.03;;;;;;;-6.62;79.27;96532.34;1760272;81;21273;-79
2020/12/03 03:24:14;;;;;;;31.33;13.90;;;;;;;-6.87;79.12;96540.44;1759932;81;21193;-79
2020/12/03 03:26:43;;;;;;;21.83;11.00;;;;;;;-6.96;79.45;96536.60;1759997;81;21159;-79
2020/12/03 03:29:12;;;;;;;23.83;11.63;;;;;;;-7.00;79.90;96542.28;1759860;81;21138;-79
2020/12/03 03:31:39;;;;;;;21.23;11.83;;;;;;;-7.02;80.24;96528.28;1759989;80;21507;-79
2020/12/03 03:34:07;;;;;;;25.95;12.18;;;;;;;-7.02;80.49;96516.69;1763052;81;21148;-79
2020/12/03 03:36:35;;;;;;;21.80;10.00;;;;;;;-6.86;80.62;96515.78;1765614;81;21163;-79
2020/12/03 03:39:06;;;;;;;20.27;9.93;;;;;;;-6.76;80.44;96515.53;1765650;81;21112;-79
2020/12/03 03:41:34;;;;;;;22.70;11.10;;;;;;;-6.69;80.46;96505.66;1765512;80;21152;-79
2020/12/03 03:44:01;;;;;;;18.03;8.13;;;;;;;-6.52;80.47;96514.55;1765669;81;21123;-79
2020/12/03 03:46:28;;;;;;;16.50;7.87;;;;;;;-6.39;80.47;96514.27;1765691;81;21134;-79
2020/12/03 03:48:55;;;;;;;17.47;9.00;;;;;;;-6.23;80.50;96510.75;1765729;81;21147;-79
2020/12/03 03:51:22;;;;;;;17.30;7.58;;;;;;;-6.11;80.38;96502.09;1765539;80;21522;-79
2020/12/03 03:53:49;;;;;;;17.32;8.78;;;;;;;-6.03;80.19;96492.50;1765675;81;21515;-79
2020/12/03 03:56:16;;;;;;;15.50;8.50;;;;;;;-5.94;79.99;96491.91;1765646;81;21499;-79
2020/12/03 03:58:43;;;;;;;15.37;7.33;;;;;;;-5.90;79.83;96484.64;1765677;81;21513;-79
2020/12/03 04:01:10;;;;;;;21.10;8.95;;;;;;;-5.81;79.65;96486.10;1765649;80;21498;-79
2020/12/03 04:03:37;;;;;;;21.93;10.23;;;;;;;-5.77;79.41;96495.08;1765644;81;21156;-79
2020/12/03 04:06:04;;;;;;;16.25;8.28;;;;;;;-5.73;79.18;96491.19;1765636;81;21143;-79
2020/12/03 04:08:32;;;;;;;20.93;8.93;;;;;;;-5.64;78.91;96479.76;1765692;81;21161;-79
2020/12/03 04:10:59;;;;;;;18.27;8.88;;;;;;;-5.53;78.83;96476.72;1765501;80;21497;-79
2020/12/03 04:13:27;;;;;;;17.70;8.53;;;;;;;-5.49;78.76;96462.49;1765504;81;21186;-79
2020/12/03 04:15:54;;;;;;;17.30;8.67;;;;;;;-5.45;78.42;96470.18;1765561;81;21554;-79
2020/12/03 04:18:26;;;;;;;16.60;8.55;;;;;;;-5.44;78.15;96467.91;1765615;81;21155;-79
2020/12/03 04:21:01;;;;;;;15.30;7.72;;;;;;;-5.43;78.09;96466.13;1765627;80;21144;-79
2020/12/03 04:23:29;;;;;;;17.82;8.63;;;;;;;-5.45;77.98;96452.59;1765618;81;21135;-79
2020/12/03 04:25:56;;;;;;;23.18;10.68;;;;;;;-5.45;77.68;96453.39;1765609;81;21150;-79
2020/12/03 04:28:24;;;;;;;20.35;9.43;;;;;;;-5.43;77.60;96454.50;1765664;81;21168;-79
2020/12/03 04:30:51;;;;;;;23.73;9.90;;;;;;;-5.42;77.66;96463.35;1765465;80;21181;-79
2020/12/03 04:33:18;;;;;;;20.32;10.18;;;;;;;-5.42;77.62;96463.35;1765157;81;21140;-79
2020/12/03 04:35:45;;;;;;;22.40;9.60;;;;;;;-5.42;77.64;96453.02;1759921;81;21146;-79
2020/12/03 04:38:15;;;;;;;18.15;8.85;;;;;;;-5.39;77.55;96447.48;1760216;81;21143;-79
2020/12/03 04:40:46;;;;;;;20.57;8.43;;;;;;;-5.33;77.58;96449.84;1759869;80;21164;-79
2020/12/03 04:43:31;;;;;;;12.65;6.72;;;;;;;-5.30;77.63;96449.97;1759895;81;21483;-79
2020/12/03 04:46:09;;;;;;;16.80;7.03;;;;;;;-5.27;77.38;96447.02;1759986;81;21151;-79
2020/12/03 04:49:23;;;;;;;13.93;6.35;;;;;;;-5.17;76.88;96443.65;1760040;81;21139;-79
2020/12/03 04:52:23;;;;;;;17.65;8.15;;;;;;;-5.12;75.93;96437.42;1759956;81;21152;-79
2020/12/03 04:55:12;;;;;;;21.30;9.95;;;;;;;-5.13;75.62;96436.63;1752819;81;21151;-79
2020/12/03 04:58:06;;;;;;;21.85;8.83;;;;;;;-5.15;75.93;96432.63;1760005;81;21543;-79
2020/12/03 05:00:41;;;;;;;17.05;8.45;;;;;;;-5.18;76.18;96425.25;1759783;80;21545;-79
2020/12/03 05:04:01;;;;;;;21.50;10.48;;;;;;;-5.21;76.00;96425.13;1759941;81;21131;-79
2020/12/03 05:06:57;;;;;;;19.32;9.60;;;;;;;-5.28;75.83;96413.13;1760105;81;21491;-79
2020/12/03 05:09:51;;;;;;;18.75;9.63;;;;;;;-5.29;75.82;96406.36;1760051;80;21123;-79
2020/12/03 05:12:22;;;;;;;16.07;8.17;;;;;;;-5.29;76.03;96421.36;1759811;81;21156;-79
2020/12/03 05:14:58;;;;;;;26.50;11.73;;;;;;;-5.25;76.00;96417.91;1760224;81;21144;-79
2020/12/03 05:17:57;;;;;;;21.57;9.77;;;;;;;-5.22;75.95;96416.25;1759985;81;21139;-79
2020/12/03 05:20:50;;;;;;;21.42;10.30;;;;;;;-5.18;75.70;96420.89;1795837;79;22896;-78
2020/12/03 05:23:31;;;;;;;22.52;11.03;;;;;;;-5.22;75.72;96415.76;1754769;82;21491;-78
2020/12/03 05:26:01;;;;;;;21.70;10.72;;;;;;;-5.21;75.66;96415.27;1754612;82;21263;-78
2020/12/03 05:28:36;;;;;;;18.00;8.95;;;;;;;-5.22;75.50;96414.46;1754842;81;21626;-78
2020/12/03 05:34:17;;;;;;;26.33;15.23;;;;;;;-5.18;75.40;96394.25;1819104;78;38939;-78
2020/12/03 05:37:03;;;;;;;23.32;12.00;;;;;;;-5.20;75.38;96400.09;1729503;83;21470;-78
2020/12/03 05:39:44;;;;;;;20.17;11.25;;;;;;;-5.19;75.39;96408.95;1739039;82;21291;-79
2020/12/03 05:42:17;;;;;;;26.12;11.12;;;;;;;-5.18;75.23;96400.22;1710367;84;21139;-79
2020/12/03 05:44:50;;;;;;;22.73;10.35;;;;;;;-5.17;75.32;96406.18;1703395;84;21131;-79
2020/12/03 05:47:37;;;;;;;23.83;10.40;;;;;;;-5.13;75.39;96406.91;1723978;83;21510;-79
2020/12/03 05:50:18;;;;;;;23.87;10.25;;;;;;;-5.09;75.41;96419.77;1723942;83;21116;-79
2020/12/03 05:53:19;;;;;;;21.05;10.88;;;;;;;-5.06;75.32;96403.11;1717491;83;21554;-78
2020/12/03 05:55:49;;;;;;;24.27;12.37;;;;;;;-5.10;74.96;96407.83;1723983;83;21103;-78
2020/12/03 05:58:32;;;;;;;21.12;11.90;;;;;;;-5.18;74.87;96398.13;1732684;83;21471;-78
2020/12/03 06:01:19;;;;;;;34.45;14.68;;;;;;;-5.20;74.97;96398.80;1732673;83;21176;-78
2020/12/03 06:04:24;;;;;;;23.18;12.15;;;;;;;-5.26;74.89;96397.73;1730510;83;21154;-79
2020/12/03 06:07:19;;;;;;;27.90;12.95;;;;;;;-5.31;75.06;96391.53;1731749;83;21146;-79
2020/12/03 06:10:31;;;;;;;23.12;12.80;;;;;;;-5.28;75.18;96384.70;1878152;76;23075;-78
2020/12/03 06:16:57;;;;;;;17.15;8.95;;;;;;;-5.20;75.25;96383.30;1818207;79;22863;-77
2020/12/03 06:20:05;;;;;;;20.27;9.93;;;;;;;-5.22;74.89;96385.24;1790262;80;21483;-78
2020/12/03 06:22:43;;;;;;;19.30;10.60;;;;;;;-5.22;74.80;96378.78;1760147;81;21289;-79
2020/12/03 06:25:42;;;;;;;14.63;8.40;;;;;;;-5.25;74.88;96372.20;1741646;81;21297;-78
2020/12/03 06:28:54;;;;;;;20.95;8.03;;;;;;;-5.24;74.71;96363.96;1760546;81;21119;-79
2020/12/03 06:31:47;;;;;;;23.67;10.05;;;;;;;-5.23;74.68;96358.61;1760425;80;21622;-79
2020/12/03 06:34:26;;;;;;;26.12;11.15;;;;;;;-5.14;74.78;96353.62;1760427;81;21281;-77
2020/12/03 06:37:03;;;;;;;26.33;13.98;;;;;;;-5.06;74.84;96354.50;1760695;81;21139;-78
2020/12/03 06:39:39;;;;;;;28.10;14.45;;;;;;;-5.08;74.93;96360.63;1760588;80;21241;-78
2020/12/03 06:42:21;;;;;;;20.90;11.25;;;;;;;-5.20;75.01;96361.34;1760567;81;21269;-78
2020/12/03 06:44:58;;;;;;;18.85;9.70;;;;;;;-5.22;74.96;96354.23;1759823;81;21496;-78
2020/12/03 06:47:46;;;;;;;22.40;11.57;;;;;;;-5.09;74.63;96349.98;1760586;81;21277;-78
2020/12/03 06:51:10;;;;;;;22.70;11.70;;;;;;;-4.97;74.61;96359.82;1760124;80;21173;-78
2020/12/03 06:54:11;;;;;;;21.10;10.75;;;;;;;-4.88;74.51;96351.75;1760476;81;21335;-79
2020/12/03 06:57:13;;;;;;;15.72;8.68;;;;;;;-4.71;74.23;96341.13;1760551;81;21142;-78
2020/12/03 07:00:11;;;;;;;17.60;9.28;;;;;;;-4.53;74.02;96323.33;1760375;80;21644;-78
2020/12/03 07:03:36;;;;;;;16.50;9.15;;;;;;;-4.29;74.10;96312.51;1760507;81;21136;-78
2020/12/03 07:06:42;;;;;;;17.02;9.38;;;;;;;-4.07;73.12;96307.23;1760431;81;21429;-78
2020/12/03 07:09:27;;;;;;;18.37;10.13;;;;;;;-3.54;71.84;96316.43;1760529;81;21283;-78
2020/12/03 07:12:34;;;;;;;18.07;10.15;;;;;;;-3.19;72.41;96330.05;1744474;81;21112;-78
2020/12/03 07:16:00;;;;;;;17.87;9.85;;;;;;;-2.92;72.13;96330.36;1723417;81;21474;-79
2020/12/03 07:19:01;;;;;;;20.88;10.15;;;;;;;-2.68;71.46;96323.73;1763365;81;21237;-79
2020/12/03 07:21:52;;;;;;;17.48;10.10;;;;;;;-2.32;71.09;96311.59;1746559;81;21154;-79
2020/12/03 07:24:31;;;;;;;;;;;;;;;-2.00;70.69;96311.17;1765001;81;21260;-78
2020/12/03 07:27:38;;;;;;;21.68;11.25;;;;;;;-1.75;70.05;96306.57;1763087;81;20150;-79
2020/12/03 07:30:36;;;;;;;24.80;11.50;;;;;;;-1.61;69.06;96302.89;1721608;81;21110;-79
2020/12/03 07:33:20;;;;;;;26.90;15.50;;;;;;;-1.67;68.51;96303.74;1762930;81;21103;-79
2020/12/03 07:36:09;;;;;;;25.50;14.15;;;;;;;-1.92;68.19;96309.65;1762826;81;21170;-78
2020/12/03 07:39:03;;;;;;;29.12;16.00;;;;;;;-2.21;68.35;96312.77;1763096;81;21247;-78
2020/12/03 07:41:35;;;;;;;34.20;14.95;;;;;;;-2.55;67.98;96308.64;1762872;81;21155;-78
2020/12/03 07:44:17;;;;;;;29.42;15.03;;;;;;;-2.95;68.58;96313.91;1765005;81;21134;-78
2020/12/03 07:46:44;;;;;;;29.50;14.33;;;;;;;-3.07;69.15;96318.09;1765552;81;21114;-78
2020/12/03 07:49:33;;;;;;;27.98;12.88;;;;;;;-3.08;69.82;96306.13;1765457;81;21133;-78
2020/12/03 07:52:30;;;;;;;23.10;12.40;;;;;;;-2.86;70.35;96301.01;1765710;81;21106;-79
2020/12/03 07:55:26;;;;;;;25.77;13.72;;;;;;;-2.45;70.71;96300.73;1764524;81;21178;-78
2020/12/03 07:57:59;;;;;;;28.45;14.30;;;;;;;-2.10;69.72;96290.06;1765500;81;21095;-79
2020/12/03 08:00:47;;;;;;;23.18;11.93;;;;;;;-2.12;68.71;96284.24;1765155;80;21139;-79
2020/12/03 08:06:29;;;;;;;24.60;11.45;;;;;;;-2.38;67.49;96283.06;1818244;79;23422;-78
2020/12/03 08:09:05;;;;;;;25.65;14.58;;;;;;;-2.57;67.69;96287.30;1791708;80;21093;-78
2020/12/03 08:12:00;;;;;;;27.87;14.20;;;;;;;-2.80;68.12;96287.25;1760150;80;21527;-79
2020/12/03 08:14:47;;;;;;;31.23;16.00;;;;;;;-2.84;68.54;96295.12;1760455;81;21614;-79
2020/12/03 08:17:22;;;;;;;13.10;8.88;;;;;;;-2.91;68.44;96294.84;1760483;81;21096;-79
2020/12/03 08:20:12;;;;;;;25.62;13.20;;;;;;;-3.08;67.83;96291.36;1760465;80;21147;-79
2020/12/03 08:22:44;;;;;;;19.45;11.10;;;;;;;-3.26;68.16;96304.60;1760129;81;21301;-78
2020/12/03 08:25:17;;;;;;;20.97;12.37;;;;;;;-3.28;68.75;96277.59;1760329;81;21642;-78
2020/12/03 08:28:00;;;;;;;16.73;9.05;;;;;;;-3.17;68.90;96264.03;1760424;81;21294;-78
2020/12/03 08:30:34;;;;;;;25.27;14.63;;;;;;;-3.06;68.77;96297.14;1760479;80;21527;-78
2020/12/03 08:33:17;;;;;;;29.00;15.50;;;;;;;-2.91;69.01;96299.53;1760354;81;21266;-79
2020/12/03 08:35:59;;;;;;;19.20;10.15;;;;;;;-2.80;69.04;96290.34;1760459;81;21262;-78
2020/12/03 08:38:35;;;;;;;27.67;13.85;;;;;;;-2.66;68.43;96288.53;1760741;81;21135;-78
2020/12/03 08:41:07;;;;;;;23.42;12.60;;;;;;;-2.41;68.83;96286.34;1760408;80;21285;-79
2020/12/03 08:43:41;;;;;;;31.33;15.83;;;;;;;-1.95;68.89;96271.61;1760353;81;21261;-79
2020/12/03 08:46:09;;;;;;;27.77;15.95;;;;;;;-1.66;67.84;96275.45;1760763;80;21214;-79
2020/12/03 08:48:39;;;;;;;29.95;14.93;;;;;;;-1.49;67.23;96281.73;1760585;81;21549;-79
2020/12/03 08:51:10;;;;;;;27.93;16.23;;;;;;;-1.41;67.18;96267.16;1760415;80;21499;-79
2020/12/03 08:53:39;;;;;;;27.45;16.02;;;;;;;-1.43;66.99;96257.98;1760511;81;21284;-79
2020/12/03 08:56:19;;;;;;;28.05;17.00;;;;;;;-1.51;66.66;96255.95;1731342;81;21151;-79
2020/12/03 08:59:18;;;;;;;25.37;12.55;;;;;;;-1.48;66.99;96264.33;1760344;81;21140;-79
2020/12/03 09:02:03;;;;;;;29.07;15.70;;;;;;;-1.41;66.86;96255.97;1760377;81;21267;-80
2020/12/03 09:04:34;;;;;;;28.87;15.83;;;;;;;-1.49;66.37;96260.94;1760323;81;21116;-79
2020/12/03 09:07:07;;;;;;;26.27;15.83;;;;;;;-1.52;67.13;96269.95;1760456;81;21131;-80
2020/12/03 09:09:38;;;;;;;33.60;18.27;;;;;;;-1.54;67.23;96258.97;1760341;80;21305;-79
2020/12/03 09:12:08;;;;;;;35.58;19.87;;;;;;;-1.55;67.39;96253.95;1760400;81;21151;-79
2020/12/03 09:14:41;;;;;;;42.88;21.07;;;;;;;-1.61;67.24;96247.02;1760424;81;21278;-80
2020/12/03 09:17:11;;;;;;;31.25;18.98;;;;;;;-1.74;67.37;96239.30;1760154;81;21468;-80
2020/12/03 09:19:40;;;;;;;37.45;20.95;;;;;;;-1.86;67.41;96249.56;1760007;80;21514;-80
2020/12/03 09:22:10;;;;;;;36.77;20.32;;;;;;;-1.83;67.97;96238.27;1759974;81;21146;-80
2020/12/03 09:24:40;;;;;;;44.58;21.42;;;;;;;-1.70;67.75;96243.06;1760252;81;21172;-79
2020/12/03 09:27:09;;;;;;;32.03;18.30;;;;;;;-1.76;67.90;96239.52;1760240;81;21147;-80
2020/12/03 09:29:36;;;;;;;39.15;21.37;;;;;;;-1.64;68.11;96235.75;1760011;80;21143;-80
2020/12/03 09:32:07;;;;;;;39.58;19.02;;;;;;;-1.55;68.21;96246.98;1759846;81;21193;-80
2020/12/03 09:34:37;;;;;;;36.00;19.30;;;;;;;-1.54;67.94;96236.09;1759884;81;21134;-79
2020/12/03 09:37:06;;;;;;;41.05;21.17;;;;;;;-1.50;67.89;96228.95;1759951;81;21492;-80
2020/12/03 09:39:35;;;;;;;33.10;17.45;;;;;;;-1.47;68.02;96225.12;1759952;80;21142;-80
2020/12/03 09:42:05;;;;;;;37.40;20.55;;;;;;;-1.49;67.99;96228.44;1759799;81;21495;-80
2020/12/03 09:44:35;;;;;;;35.80;18.42;;;;;;;-1.48;68.10;96227.43;1760126;81;21159;-80
2020/12/03 09:47:13;;;;;;;43.38;22.82;;;;;;;-1.48;67.88;96220.93;1760002;81;21120;-80
2020/12/03 09:49:45;;;;;;;45.08;21.45;;;;;;;-1.51;68.26;96222.66;1759861;80;21155;-79
2020/12/03 09:52:15;;;;;;;38.75;21.82;;;;;;;-1.51;68.23;96205.77;1760394;80;21151;-79
2020/12/03 09:54:44;;;;;;;48.90;24.87;;;;;;;-1.54;68.67;96193.20;1759889;81;21163;-80
2020/12/03 09:57:13;;;;;;;54.98;24.60;;;;;;;-1.42;69.14;96194.58;1759880;81;21128;-80
2020/12/03 09:59:41;;;;;;;50.65;25.10;;;;;;;-1.26;69.33;96192.27;1760130;80;21189;-79
2020/12/03 10:02:17;;;;;;;45.43;24.60;;;;;;;-1.17;68.95;96194.06;1759948;81;21135;-79
2020/12/03 10:05:04;;;;;;;52.30;27.95;;;;;;;-1.15;68.84;96186.05;1755500;81;21143;-80
2020/12/03 10:07:49;;;;;;;48.28;26.10;;;;;;;-1.22;68.64;96185.61;1730630;83;21155;-79
2020/12/03 10:10:34;;;;;;;45.92;26.40;;;;;;;-1.34;68.76;96188.63;1732703;81;21536;-79
2020/12/03 10:13:25;;;;;;;46.13;26.90;;;;;;;-1.29;69.07;96190.57;1733698;83;21154;-79
2020/12/03 10:16:07;;;;;;;39.40;23.70;;;;;;;-1.30;69.12;96188.48;1733612;83;21119;-79
2020/12/03 10:18:39;;;;;;;40.80;20.92;;;;;;;-1.26;69.19;96184.46;1733848;83;21126;-79
2020/12/03 10:21:08;;;;;;;28.02;14.45;;;;;;;-1.30;68.94;96183.78;1733584;81;21184;-79
2020/12/03 10:23:50;;;;;;;33.53;18.25;;;;;;;-1.25;68.31;96174.34;1733656;83;21136;-79
2020/12/03 10:26:33;;;;;;;27.00;16.25;;;;;;;-1.13;68.04;96175.71;1733763;83;21130;-79
2020/12/03 10:29:35;;;;;;;31.50;17.62;;;;;;;-0.94;68.33;96187.75;1733780;83;21142;-79
2020/12/03 10:32:12;;;;;;;27.82;16.77;;;;;;;-0.81;68.26;96187.33;1732620;83;21123;-79
2020/12/03 10:34:47;;;;;;;34.27;18.62;;;;;;;-0.85;67.79;96199.16;1733698;83;21471;-79
2020/12/03 10:37:45;;;;;;;39.70;20.55;;;;;;;-0.88;68.19;96199.09;1733735;83;21487;-79
2020/12/03 10:40:19;;;;;;;31.55;16.25;;;;;;;-0.84;68.57;96195.06;1733639;81;21172;-79
2020/12/03 10:43:01;;;;;;;35.33;20.95;;;;;;;-0.79;68.58;96192.59;1733771;83;21130;-79
2020/12/03 10:45:33;;;;;;;39.35;19.75;;;;;;;-0.81;68.74;96194.62;1733759;83;21143;-79
2020/12/03 10:50:54;;;;;;;32.93;20.05;;;;;;;-0.74;69.00;96181.02;1765742;79;22999;-78
2020/12/03 10:53:30;;;;;;;33.18;17.75;;;;;;;-0.76;69.21;96181.75;1728848;83;21142;-78
2020/12/03 10:56:07;;;;;;;31.85;17.17;;;;;;;-0.79;69.08;96186.09;1729308;83;21126;-79
2020/12/03 10:58:56;;;;;;;34.55;20.52;;;;;;;-0.87;69.22;96181.16;1729306;83;21142;-79
2020/12/03 11:01:29;;;;;;;39.70;21.27;;;;;;;-0.92;69.53;96184.92;1728614;82;21133;-79
2020/12/03 11:04:02;;;;;;;39.42;21.48;;;;;;;-0.88;69.86;96178.27;1729557;83;21134;-79
2020/12/03 11:06:31;;;;;;;41.63;21.35;;;;;;;-0.84;69.74;96172.95;1729350;83;21506;-79
2020/12/03 11:09:01;;;;;;;46.37;24.98;;;;;;;-0.81;69.52;96173.80;1729387;83;21503;-79
2020/12/03 11:11:37;;;;;;;40.60;21.42;;;;;;;-0.84;69.10;96170.84;1729279;81;21147;-79
2020/12/03 11:14:11;;;;;;;30.88;16.95;;;;;;;-0.85;69.38;96172.63;1729408;83;21112;-79
2020/12/03 11:16:47;;;;;;;34.35;15.32;;;;;;;-0.84;69.49;96174.25;1729363;83;21518;-79
2020/12/03 11:19:15;;;;;;;41.98;22.67;;;;;;;-0.88;69.42;96170.97;1729519;83;21147;-79
2020/12/03 11:21:48;;;;;;;41.80;21.20;;;;;;;-0.90;69.85;96178.48;1729252;83;21138;-79
2020/12/03 11:24:35;;;;;;;36.17;20.65;;;;;;;-0.78;69.75;96177.27;1728422;83;21178;-79
2020/12/03 11:27:05;;;;;;;34.38;18.32;;;;;;;-0.66;69.57;96169.03;1729406;83;21126;-79
2020/12/03 11:29:36;;;;;;;37.60;20.27;;;;;;;-0.54;69.40;96159.19;1729457;82;21498;-79
2020/12/03 11:32:04;;;;;;;35.63;19.77;;;;;;;-0.41;69.36;96160.33;1729401;83;21494;-79
2020/12/03 11:34:39;;;;;;;34.15;19.25;;;;;;;-0.26;69.92;96150.31;1729348;83;21505;-79
2020/12/03 11:37:07;;;;;;;30.08;15.90;;;;;;;-0.15;69.64;96146.94;1729338;83;21123;-79
2020/12/03 11:39:34;;;;;;;29.40;16.87;;;;;;;-0.07;69.14;96131.51;1729460;81;21174;-80
2020/12/03 11:42:26;;;;;;;34.38;16.82;;;;;;;-0.02;68.87;96135.53;1729166;83;21139;-79
2020/12/03 11:45:16;;;;;;;36.05;19.35;;;;;;;0.04;68.90;96125.53;1727931;83;21143;-79
2020/12/03 11:47:59;;;;;;;36.55;20.40;;;;;;;0.18;69.72;96137.86;1727360;83;21519;-79
2020/12/03 11:50:21;;;;;;;33.08;18.10;;;;;;;0.18;69.72;96137.86;1727016;81;21131;-79
2020/12/03 11:52:49;;;;;;;35.43;17.77;;;;;;;0.22;70.04;96129.87;1729426;83;21412;-79
2020/12/03 11:55:24;;;;;;;35.78;19.15;;;;;;;0.23;70.03;96141.38;1729264;83;21147;-79
2020/12/03 11:57:51;;;;;;;89.80;41.63;;;;;;;0.23;70.03;96141.38;1729319;83;21164;-79
2020/12/03 12:00:23;;;;;;;76.95;36.63;;;;;;;0.22;70.37;96144.20;1729395;82;21164;-79
2020/12/03 12:02:53;;;;;;;67.87;36.53;;;;;;;0.20;70.46;96152.77;1729066;83;21139;-79
2020/12/03 12:05:31;;;;;;;50.75;28.25;;;;;;;0.19;70.56;96149.36;1729111;83;21130;-79
2020/12/03 12:08:14;;;;;;;43.48;23.98;;;;;;;0.18;70.51;96146.98;1728075;83;21115;-79
2020/12/03 12:10:48;;;;;;;37.25;21.48;;;;;;;0.12;70.49;96125.70;1728363;82;21145;-79
2020/12/03 12:13:15;;;;;;;36.25;19.85;;;;;;;-0.03;70.56;96106.08;1728668;83;21526;-79
2020/12/03 12:15:43;;;;;;;35.50;20.08;;;;;;;0.12;70.41;96116.59;1728870;83;21170;-79